createdAt,value
2019-02-16T00:03:36.497Z,57.00
2019-02-16T00:08:47.123Z,48.30
2019-02-16T00:13:55.102Z,46.00
2019-02-16T00:19:06.303Z,48.00
2019-02-16T00:24:15.455Z,47.22
2019-02-16T00:29:23.463Z,45.33
2019-02-16T00:34:33.282Z,44.89
2019-02-16T00:39:41.535Z,47.80
2019-02-16T00:44:49.763Z,45.44
2019-02-16T00:49:59.546Z,45.22
2019-02-16T00:55:05.547Z,46.25
2019-02-16T01:00:16.190Z,54.89
2019-02-16T01:05:25.210Z,57.30
2019-02-16T01:10:35.611Z,56.40
2019-02-16T01:15:46.178Z,56.20
2019-02-16T01:20:55.282Z,54.80
2019-02-16T01:26:03.651Z,49.89
2019-02-16T01:31:08.591Z,54.57
2019-02-16T01:36:19.223Z,53.00
2019-02-16T01:41:29.194Z,47.11
2019-02-16T01:46:38.566Z,42.75
2019-02-16T01:51:46.962Z,58.11
2019-02-16T01:56:57.881Z,45.60
2019-02-16T02:02:05.667Z,51.67
2019-02-16T02:07:16.611Z,50.44
2019-02-16T02:12:24.813Z,47.44
2019-02-16T02:17:32.918Z,51.56
2019-02-16T02:22:40.996Z,47.22
2019-02-16T02:27:45.887Z,51.00
2019-02-16T02:32:49.679Z,49.00
2019-02-16T02:38:00.466Z,49.22
2019-02-16T02:43:11.182Z,47.67
2019-02-16T02:48:21.022Z,49.33
2019-02-16T02:53:31.835Z,51.00
2019-02-16T02:58:43.316Z,50.40
2019-02-16T03:03:51.503Z,49.11
2019-02-16T03:08:59.850Z,47.44
2019-02-16T03:14:10.861Z,49.70
2019-02-16T03:19:15.286Z,49.17
2019-02-16T03:24:26.107Z,48.40
2019-02-16T03:29:39.128Z,55.67
2019-02-16T03:34:56.910Z,46.56
2019-02-16T03:40:08.377Z,54.67
2019-02-16T03:45:19.618Z,49.20
2019-02-16T03:50:31.611Z,44.67
2019-02-16T03:55:41.090Z,48.89
2019-02-16T04:00:52.706Z,60.70
2019-02-16T04:06:02.637Z,54.33
2019-02-16T04:11:10.922Z,47.67
2019-02-16T04:16:14.308Z,48.00
2019-02-16T04:21:21.982Z,46.67
2019-02-16T04:26:32.019Z,52.44
2019-02-16T04:31:41.807Z,51.78
2019-02-16T04:36:51.947Z,49.67
2019-02-16T04:41:59.459Z,43.78
2019-02-16T04:47:09.495Z,45.00
2019-02-16T04:52:18.592Z,52.50
2019-02-16T04:57:29.562Z,49.22
2019-02-16T05:02:35.255Z,49.80
2019-02-16T05:07:46.245Z,50.80
2019-02-16T05:12:49.759Z,49.00
2019-02-16T05:18:00.183Z,55.11
2019-02-16T05:23:03.649Z,56.00
2019-02-16T05:28:13.931Z,54.44
2019-02-16T05:33:23.567Z,62.67
2019-02-16T05:38:35.279Z,54.20
2019-02-16T05:43:44.376Z,53.20
2019-02-16T05:48:55.835Z,59.00
2019-02-16T05:54:06.679Z,53.90
2019-02-16T05:59:11.381Z,57.00
2019-02-16T06:04:17.023Z,55.71
2019-02-16T06:09:25.826Z,53.30
2019-02-16T06:14:29.971Z,57.83
2019-02-16T06:19:35.039Z,57.71
2019-02-16T06:24:46.890Z,60.36
2019-02-16T06:29:52.438Z,55.57
2019-02-16T06:35:04.339Z,58.50
2019-02-16T06:40:19.654Z,62.00
2019-02-16T06:45:31.058Z,53.00
2019-02-16T06:50:39.222Z,55.00
2019-02-16T06:55:47.511Z,51.00
2019-02-16T07:00:56.385Z,52.10
2019-02-16T07:06:07.754Z,52.10
2019-02-16T07:11:15.882Z,57.40
2019-02-16T07:16:21.480Z,56.40
2019-02-16T07:21:30.881Z,58.00
2019-02-16T07:26:41.853Z,51.80
2019-02-16T07:31:47.081Z,47.43
2019-02-16T07:36:54.719Z,47.78
2019-02-16T07:41:58.771Z,51.00
2019-02-16T07:47:09.295Z,46.40
2019-02-16T07:52:20.842Z,46.67
2019-02-16T07:57:29.112Z,43.00
2019-02-16T08:02:36.507Z,41.11
2019-02-16T08:07:46.408Z,45.90
2019-02-16T08:12:57.295Z,47.30
2019-02-16T08:18:04.771Z,50.11
2019-02-16T08:23:14.668Z,47.22
2019-02-16T08:28:23.801Z,45.38
2019-02-16T08:33:33.684Z,42.67
2019-02-16T08:38:40.406Z,46.75
2019-02-16T08:43:48.949Z,36.75
2019-02-16T08:48:54.255Z,38.75
2019-02-16T08:54:02.932Z,35.11
2019-02-16T08:59:07.346Z,38.75
2019-02-16T09:04:15.728Z,36.63
2019-02-16T09:09:21.515Z,31.87
2019-02-16T09:14:24.812Z,33.00
2019-02-16T09:19:28.178Z,29.00
2019-02-16T09:24:32.293Z,32.50
2019-02-16T09:29:36.953Z,30.00
2019-02-16T09:34:42.634Z,29.57
2019-02-16T09:39:51.619Z,29.37
2019-02-16T09:44:59.690Z,33.22
2019-02-16T09:50:03.834Z,31.00
2019-02-16T09:55:07.838Z,31.00
2019-02-16T10:00:16.759Z,30.00
2019-02-16T10:05:20.514Z,29.00
2019-02-16T10:10:29.376Z,25.62
2019-02-16T10:15:37.347Z,27.00
2019-02-16T10:20:45.990Z,24.00
2019-02-16T10:25:52.475Z,22.50
2019-02-16T10:31:00.672Z,25.75
2019-02-16T10:36:05.067Z,20.25
2019-02-16T10:41:09.178Z,20.00
2019-02-16T10:46:15.440Z,22.37
2019-02-16T10:51:25.859Z,23.08
2019-02-16T10:56:30.366Z,22.00
2019-02-16T11:01:33.783Z,22.00
2019-02-16T11:06:42.546Z,21.62
2019-02-16T11:11:50.386Z,24.00
2019-02-16T11:16:54.192Z,21.50
2019-02-16T11:21:58.871Z,21.50
2019-02-16T11:27:02.357Z,20.00
2019-02-16T11:32:06.727Z,20.75
2019-02-16T11:37:10.275Z,21.00
2019-02-16T11:42:16.540Z,22.00
2019-02-16T11:47:24.437Z,23.00
2019-02-16T11:52:28.314Z,24.00
2019-02-16T11:57:34.822Z,22.00
2019-02-16T12:02:42.845Z,26.00
2019-02-16T12:07:51.000Z,23.00
2019-02-16T12:12:54.815Z,23.33
2019-02-16T12:18:03.138Z,22.00
2019-02-16T12:23:12.013Z,23.29
2019-02-16T12:28:21.555Z,22.71
2019-02-16T12:33:28.681Z,22.25
2019-02-16T12:38:35.538Z,21.25
2019-02-16T12:43:45.341Z,22.50
2019-02-16T12:48:52.993Z,23.38
2019-02-16T12:54:01.760Z,23.00
2019-02-16T12:59:08.301Z,23.75
2019-02-16T13:04:17.608Z,22.13
2019-02-16T13:09:23.023Z,22.29
2019-02-16T13:14:26.292Z,18.00
2019-02-16T13:19:34.271Z,18.43
2019-02-16T13:24:41.310Z,16.00
2019-02-16T13:29:44.347Z,15.67
2019-02-16T13:34:52.253Z,18.37
2019-02-16T13:39:55.891Z,20.67
2019-02-16T13:44:59.480Z,18.00
2019-02-16T13:50:03.694Z,16.00
2019-02-16T13:55:11.198Z,14.00
2019-02-16T14:00:20.403Z,15.00
2019-02-16T14:05:26.528Z,21.00
2019-02-16T14:10:30.215Z,19.75
2019-02-16T14:15:33.779Z,16.00
2019-02-16T14:20:39.028Z,13.71
2019-02-16T14:25:47.499Z,13.62
2019-02-16T14:30:51.005Z,13.00
2019-02-16T14:35:57.265Z,16.00
2019-02-16T14:41:03.612Z,16.12
2019-02-16T14:46:11.107Z,14.43
2019-02-16T14:51:15.343Z,16.75
2019-02-16T14:56:20.614Z,18.00
2019-02-16T15:01:27.483Z,16.50
2019-02-16T15:06:36.445Z,12.13
2019-02-16T15:11:41.686Z,13.71
2019-02-16T15:16:49.267Z,15.00
2019-02-16T15:21:57.598Z,19.12
2019-02-16T15:27:04.979Z,29.00
2019-02-16T15:32:08.871Z,22.00
2019-02-16T15:37:16.104Z,25.86
2019-02-16T15:42:20.800Z,31.00
2019-02-16T15:47:25.650Z,23.25
2019-02-16T15:52:32.643Z,24.00
2019-02-16T15:57:38.893Z,23.00
2019-02-16T16:02:45.713Z,25.33
2019-02-16T16:07:55.130Z,24.00
2019-02-16T16:13:01.331Z,27.00
2019-02-16T16:18:08.237Z,24.22
2019-02-16T16:23:11.827Z,23.00
2019-02-16T16:28:18.083Z,22.57
2019-02-16T16:33:27.443Z,29.25
2019-02-16T16:38:31.653Z,27.17
2019-02-16T16:43:40.335Z,30.37
2019-02-16T16:48:43.470Z,26.00
2019-02-16T16:53:52.158Z,27.00
2019-02-16T16:59:00.033Z,28.00
2019-02-16T17:04:06.291Z,34.75
2019-02-16T17:09:12.478Z,31.67
2019-02-16T17:14:17.408Z,34.50
2019-02-16T17:19:21.832Z,32.25
2019-02-16T17:24:30.031Z,35.00
2019-02-16T17:29:37.459Z,36.56
2019-02-16T17:34:45.004Z,35.56
2019-02-16T17:39:50.992Z,33.75
2019-02-16T17:44:54.829Z,33.00
2019-02-16T17:50:02.022Z,33.63
2019-02-16T17:55:08.550Z,41.13
2019-02-16T18:00:13.378Z,35.00
2019-02-16T18:05:22.355Z,33.13
2019-02-16T18:10:29.545Z,37.00
2019-02-16T18:15:39.074Z,36.56
2019-02-16T18:20:42.923Z,38.00
2019-02-16T18:25:47.591Z,43.50
2019-02-16T18:30:57.559Z,44.33
2019-02-16T18:36:04.537Z,42.67
2019-02-16T18:41:14.192Z,39.56
2019-02-16T18:46:18.880Z,40.00
2019-02-16T18:51:26.358Z,39.22
2019-02-16T18:56:33.095Z,37.63
2019-02-16T19:01:37.546Z,36.50
2019-02-16T19:06:42.174Z,41.50
2019-02-16T19:11:50.236Z,38.33
2019-02-16T19:16:58.990Z,39.00
2019-02-16T19:22:03.927Z,39.00
2019-02-16T19:27:16.630Z,43.11
2019-02-16T19:32:18.614Z,45.00
2019-02-16T19:37:27.884Z,43.92
2019-02-16T19:42:36.878Z,47.25
2019-02-16T19:47:46.906Z,54.67
2019-02-16T19:52:57.050Z,50.33
2019-02-16T19:58:05.358Z,53.00
2019-02-16T20:03:13.638Z,67.91
2019-02-16T20:08:21.223Z,81.75
2019-02-16T20:13:29.279Z,82.09
2019-02-16T20:18:32.699Z,83.00
2019-02-16T20:23:41.385Z,73.08
2019-02-16T20:28:45.191Z,78.80
2019-02-16T20:33:54.388Z,85.25
2019-02-16T20:38:58.668Z,83.00
2019-02-16T20:44:03.479Z,80.00
2019-02-16T20:49:10.033Z,71.56
2019-02-16T20:54:22.917Z,77.00
2019-02-16T20:59:26.792Z,78.60
2019-02-16T21:04:38.878Z,76.80
2019-02-16T21:09:46.710Z,81.09
2019-02-16T21:14:54.867Z,84.73
2019-02-16T21:20:06.734Z,88.21
2019-02-16T21:25:10.818Z,91.00
2019-02-16T21:30:20.346Z,99.50
2019-02-16T21:35:23.833Z,98.00
2019-02-16T21:40:32.949Z,96.50
2019-02-16T21:45:43.659Z,99.77
2019-02-16T21:50:49.946Z,89.00
2019-02-16T21:56:01.309Z,97.50
2019-02-16T22:01:12.479Z,107.77
2019-02-16T22:06:16.298Z,103.00
2019-02-16T22:11:21.576Z,92.43
2019-02-16T22:16:25.050Z,99.00
2019-02-16T22:21:29.127Z,102.40
2019-02-16T22:26:38.455Z,96.67
2019-02-16T22:31:49.179Z,99.71
2019-02-16T22:36:53.845Z,113.20
2019-02-16T22:42:10.619Z,97.29
2019-02-16T22:47:20.595Z,100.00
2019-02-16T22:52:34.225Z,94.19
2019-02-16T22:57:40.527Z,88.00
2019-02-16T23:02:44.716Z,99.50
2019-02-16T23:07:49.689Z,100.25
2019-02-16T23:12:56.329Z,93.67
2019-02-16T23:18:03.813Z,102.00
2019-02-16T23:23:12.982Z,103.00
2019-02-16T23:28:22.910Z,103.46
2019-02-16T23:33:29.334Z,109.00
2019-02-16T23:38:33.086Z,104.20
2019-02-16T23:43:37.395Z,93.00
2019-02-16T23:48:47.045Z,90.00
2019-02-16T23:53:50.735Z,89.00
2019-02-16T23:58:58.764Z,86.82
